Portada
METAR-TAF:

METAR-TAF

Aeropuertos :

Valencia, Venezuela

Aeropuerto Internacional Arturo Michelena

latitud: 10-10N, longitud: 067-56W, altitud: 430 m

Observación

El informe se hizo hace 17 horas y 53 minutos, a las 12:00 UTC
Viento 2 kt del sur
Temperatura 25°C
Humedad 83%
Presión 1015 hPa
Visibilidad 10 km o más
Nubes dispersas a una altura de 1600 ft

METAR: SVVA 161200Z 18002KT 9999 SCT016 25/22 Q1015

Hora: 01:53 (05:53 UTC)


TAF: falta

Observaciones y pronósticos meteorológicos de más de 4000 aeropuertos (mensajes METAR y TAF).

Los puntos amarillos y rojos representan las estaciones disponibles.

Ponga el ratón en el punto deseado para ver el nombre de la estación.

Haga clic para ver las observaciones y los pronósticos meteorológicos.

Para cambiar el mapa : haga clic en los botones verdes con una cruz de color negro para hacer un zoom, en el botón verde con un guión para alejar o en las flechas verdes para mapas adyacentes.


METAR-TAF: